• Join FlightAware (Why Join?)
  • Login
  • US Flag 
11:32AM EDT


 

Airport Tracker/Info


-or-


 

Live Flight TrackerFlight Track Log ✈ JBU1205 ✈ 24-Apr-2013 ✈ KHPN - KRSW

Flight Track Log - Related Links

Times and Time Zones

All times are in EDT time to prevent confusion due to time zone crossing. See the JBU1205 flight status page for this flight to view local times or setup timezone preferences in your user account.

Time Position Orientation Groundspeed Altitude Reporting Facility
EDT Latitude Longitude Course Direction KTS MPH feet Rate Location/Type
09:15AM 41.0833 -73.7333 237° Southwest 134 154 1,900  Level New York TRACON
09:16AM 41.1000 -73.8000 288° West 184 212 3,400 2,100 Climbing New York TRACON
09:17AM 41.0833 -73.8667 252° West 223 257 6,100 2,880 Climbing New York TRACON
09:18AM 40.8753 -74.0663 237° Southwest  Level FlightAware Approximate
09:18AM 41.0333 -73.9500 232° Southwest 269 310 8,900  Level New York TRACON
09:19AM 40.8109 -74.1912 234° Southwest  Level FlightAware Approximate
09:19AM 41.0000 -74.0333 242° Southwest 284 327 11,200  Level New York TRACON
09:20AM 40.7441 -74.3137 234° Southwest  Level FlightAware Approximate
09:21AM 40.6823 -74.4354 237° Southwest  Level FlightAware Approximate
09:22AM 40.8756 -74.2344 231° Southwest 350 403 15,000  Level New York Center
09:23AM 40.8078 -74.3406 230° Southwest 350 403 16,600 960 Climbing New York Center
09:24AM 40.7461 -74.4414 231° Southwest 350 403 17,000 720 Climbing New York Center
09:25AM 40.6847 -74.5447 232° Southwest 364 419 18,100 1,440 Climbing New York Center
09:26AM 40.6275 -74.6347 230° Southwest 364 419 19,900 1,860 Climbing New York Center
09:27AM 40.5614 -74.7431 231° Southwest 364 419 21,900 1,800 Climbing New York Center
09:28AM 40.4675 -74.8111 209° Southwest 369 425 23,600 1,620 Climbing New York Center
09:29AM 40.3850 -74.9072 222° Southwest 390 449 25,200 1,560 Climbing New York Center
09:30AM 40.3222 -75.0258 235° Southwest 398 458 26,700 1,440 Climbing New York Center
09:31AM 40.2553 -75.1497 235° Southwest 410 472 28,100 1,260 Climbing New York Center
09:32AM 40.1881 -75.2758 235° Southwest 423 487 29,300 1,260 Climbing New York Center
09:33AM 40.1186 -75.3961 233° Southwest 428 493 30,700 1,440 Climbing New York Center
09:34AM 40.0411 -75.5103 228° Southwest 433 498 32,200 1,380 Climbing New York Center
09:35AM 39.9619 -75.6161 226° Southwest 426 490 33,500 1,200 Climbing New York Center
09:36AM 39.8794 -75.7403 229° Southwest 426 490 34,700 1,140 Climbing New York Center
09:37AM 39.8058 -75.8539 230° Southwest 425 489 35,800 600 Climbing New York Center
09:38AM 39.7342 -75.9703 231° Southwest 419 482 36,000 60 Climbing New York Center
09:40AM 39.5639 -76.2347 230° Southwest 432 497 36,000  Level Washington Center
09:41AM 39.4861 -76.3553 230° Southwest 432 497 36,000  Level Washington Center
09:42AM 39.4103 -76.4644 228° Southwest 427 491 36,000 360 Level Washington Center
09:43AM 39.3367 -76.5817 231° Southwest 427 491 36,800 840 Climbing Washington Center
09:44AM 39.2628 -76.6933 230° Southwest 427 491 37,700 600 Climbing Washington Center
09:45AM 39.1928 -76.8075 232° Southwest 410 472 38,000 120 Climbing Washington Center
09:46AM 39.1208 -76.9186 230° Southwest 410 472 38,000  Level Washington Center
09:47AM 39.0486 -77.0294 230° Southwest 415 478 38,000  Level Washington Center
09:48AM 38.9642 -77.1267 222° Southwest 415 478 38,000  Level Washington Center
09:49AM 38.8753 -77.2236 220° Southwest 409 471 38,000  Level Washington Center
09:50AM 38.7883 -77.3175 220° Southwest 414 476 38,000  Level Washington Center
09:51AM 38.7100 -77.4033 221° Southwest 414 476 38,000  Level Washington Center
09:52AM 38.6231 -77.4969 220° Southwest 414 476 38,000  Level Washington Center
09:53AM 38.5339 -77.5928 220° Southwest 414 476 38,000  Level Washington Center
09:54AM 38.4489 -77.6886 221° Southwest 414 476 38,000  Level Washington Center
09:55AM 38.3639 -77.7817 221° Southwest 414 476 38,000  Level Washington Center
09:56AM 38.2767 -77.8742 220° Southwest 414 476 38,000  Level Washington Center
09:57AM 38.1894 -77.9694 221° Southwest 414 476 38,000  Level Washington Center
09:58AM 38.1019 -78.0617 220° Southwest 414 476 38,000  Level Washington Center
09:59AM 38.0144 -78.1589 221° Southwest 414 476 38,000  Level Washington Center
10:00AM 37.9292 -78.2403 217° Southwest 409 471 38,000  Level Washington Center
10:01AM 37.8397 -78.3264 217° Southwest 409 471 38,000  Level Washington Center
10:02AM 37.7375 -78.4200 216° Southwest 422 486 38,000  Level Washington Center
10:03AM 37.6456 -78.5058 216° Southwest 422 486 38,000  Level Washington Center
10:04AM 37.5539 -78.5939 217° Southwest 422 486 38,000  Level Washington Center
10:05AM 37.4597 -78.6792 216° Southwest 422 486 38,000  Level Washington Center
10:06AM 37.3681 -78.7642 216° Southwest 417 480 38,000  Level Washington Center
10:07AM 37.2844 -78.8417 216° Southwest 417 480 38,000  Level Washington Center
10:08AM 37.1944 -78.9267 217° Southwest 417 480 38,000  Level Washington Center
10:09AM 37.1003 -79.0111 216° Southwest 417 480 38,000  Level Washington Center
10:10AM 37.0081 -79.0981 217° Southwest 417 480 38,000  Level Washington Center
10:11AM 36.9031 -79.1944 216° Southwest 417 480 38,000  Level Washington Center
10:12AM 36.8128 -79.2786 217° Southwest 417 480 38,000  Level Washington Center
10:13AM 36.7183 -79.3647 216° Southwest 417 480 38,000  Level Washington Center
10:14AM 36.6258 -79.4508 217° Southwest 417 480 38,000  Level Washington Center
10:16AM 36.4436 -79.6128 216° Southwest 426 490 38,000  Level Atlanta Center
10:17AM 36.3486 -79.6978 216° Southwest 426 490 38,000  Level Atlanta Center
10:18AM 36.2678 -79.7742 217° Southwest 421 484 38,000  Level Atlanta Center
10:19AM 36.1706 -79.8592 215° Southwest 421 484 38,000  Level Atlanta Center
10:20AM 36.0775 -79.9436 216° Southwest 421 484 38,000  Level Atlanta Center
10:21AM 35.9714 -80.0131 208° Southwest 421 484 38,000  Level Atlanta Center
10:22AM 35.8481 -80.0731 202° Southwest 427 491 38,000  Level Atlanta Center
10:23AM 35.7372 -80.1269 202° Southwest 434 499 38,000  Level Atlanta Center
10:24AM 35.6369 -80.1831 204° Southwest 434 499 38,000  Level Atlanta Center
10:25AM 35.5258 -80.2367 201° Southwest 434 499 38,000  Level Atlanta Center
10:26AM 35.4150 -80.2928 202° Southwest 434 499 38,000  Level Atlanta Center
10:27AM 35.2936 -80.3567 203° Southwest 429 494 38,000  Level Atlanta Center
10:29AM 35.0731 -80.4628 201° Southwest 451 519 38,000  Level Jacksonville Center
10:30AM 34.9636 -80.5192 203° Southwest 440 506 38,000  Level Jacksonville Center
10:31AM 34.8497 -80.5753 202° Southwest 435 501 38,000  Level Jacksonville Center
10:32AM 34.7569 -80.6208 202° Southwest 425 489 38,000  Level Jacksonville Center
10:33AM 34.6453 -80.6744 202° Southwest 425 489 38,000  Level Jacksonville Center
10:34AM 34.5272 -80.7328 202° Southwest 448 516 38,000  Level Jacksonville Center
10:35AM 34.4156 -80.7883 202° Southwest 438 504 38,000  Level Jacksonville Center
10:36AM 34.3081 -80.8464 204° Southwest 438 504 38,000  Level Jacksonville Center
10:37AM 34.2022 -80.8889 198° South 426 490 38,000  Level Jacksonville Center
10:38AM 34.0928 -80.9467 204° Southwest 426 490 38,000  Level Jacksonville Center
10:39AM 33.9786 -81.0017 202° Southwest 431 496 38,000  Level Jacksonville Center
10:40AM 33.8647 -81.0517 200° South 438 504 38,000  Level Jacksonville Center
10:41AM 33.7550 -81.1067 203° Southwest 438 504 38,000  Level Jacksonville Center
10:42AM 33.6431 -81.1636 203° Southwest 433 498 38,000  Level Jacksonville Center
10:43AM 33.5331 -81.2206 203° Southwest 433 498 38,000  Level Jacksonville Center
10:44AM 33.4211 -81.2750 202° Southwest 433 498 38,000  Level Jacksonville Center
10:45AM 33.3092 -81.3292 202° Southwest 433 498 38,000  Level Jacksonville Center
10:46AM 33.1972 -81.3833 202° Southwest 433 498 38,000  Level Jacksonville Center
10:47AM 33.0850 -81.4372 202° Southwest 433 498 38,000  Level Jacksonville Center
10:48AM 32.9750 -81.4886 201° Southwest 433 498 38,000  Level Jacksonville Center
10:49AM 32.8628 -81.5447 203° Southwest 433 498 38,000  Level Jacksonville Center
10:50AM 32.7550 -81.5983 203° Southwest 433 498 38,000  Level Jacksonville Center
10:51AM 32.6322 -81.6567 202° Southwest 433 498 38,000  Level Jacksonville Center
10:52AM 32.5306 -81.7050 202° Southwest 434 499 38,000  Level Jacksonville Center
10:53AM 32.4078 -81.7631 202° Southwest 434 499 38,000  Level Jacksonville Center
10:54AM 32.2956 -81.8186 203° Southwest 434 499 38,000  Level Jacksonville Center
10:55AM 32.1958 -81.8664 202° Southwest 434 499 38,000  Level Jacksonville Center
10:56AM 32.0711 -81.9242 201° Southwest 434 499 38,000  Level Jacksonville Center
10:57AM 31.9689 -81.9644 198° South 434 499 38,000  Level Jacksonville Center
10:58AM 31.8292 -81.9806 186° South 449 517 38,000  Level Jacksonville Center
10:59AM 31.7061 -81.9914 184° South 460 529 38,000  Level Jacksonville Center
11:00AM 31.5914 -82.0022 185° South 466 536 38,000  Level Jacksonville Center
11:01AM 31.4642 -82.0181 186° South 458 527 38,000  Level Jacksonville Center
11:02AM 31.3389 -82.0267 183° South 458 527 38,000  Level Jacksonville Center
11:03AM 31.2117 -82.0425 186° South 458 527 38,000  Level Jacksonville Center
11:04AM 31.0822 -82.0533 184° South 458 527 38,000  Level Jacksonville Center
11:05AM 30.9569 -82.0664 185° South 463 533 38,000  Level Jacksonville Center
11:06AM 30.8150 -82.0775 184° South 463 533 38,000  Level Jacksonville Center
11:07AM 30.6900 -82.0881 184° South 463 533 38,000  Level Jacksonville Center
11:08AM 30.5647 -82.1011 185° South 458 527 38,000  Level Jacksonville Center
11:09AM 30.4353 -82.1072 182° South 458 527 38,000  Level Jacksonville Center
11:10AM 30.3081 -82.1178 184° South 458 527 38,000  Level Jacksonville Center
11:11AM 30.1786 -82.1261 183° South 458 527 38,000  Level Jacksonville Center
11:12AM 30.0469 -82.1008 171° South 468 539 38,000  Level Jacksonville Center
11:13AM 29.9131 -82.0803 172° South 480 552 38,000 -360 Level Jacksonville Center
11:14AM 29.7814 -82.0550 171° South 485 558 37,300 -900 Descending Jacksonville Center
11:15AM 29.6478 -82.0275 170° South 485 558 36,300 -960 Descending Jacksonville Center
11:16AM 29.5139 -82.0000 170° South 490 564 35,400 -660 Descending Jacksonville Center
11:17AM 29.3800 -81.9728 170° South 490 564 35,000 -240 Descending Jacksonville Center
11:18AM 29.2442 -81.9478 171° South 490 564 35,000  Level Jacksonville Center
11:19AM 29.1231 -81.9203 169° South 490 564 35,000 -60 Level Jacksonville Center
11:20AM 28.9892 -81.8933 170° South 490 564 34,900 -1,860 Descending Jacksonville Center
11:22AM 28.6961 -81.8372 170° South 490 564 29,100 -2,460 Descending Miami Center
11:23AM 28.5617 -81.8100 170° South 502 578 27,000 -1,500 Descending Miami Center
11:24AM 28.4336 -81.7736 166° South 491 565 26,200 -1,500 Descending Miami Center
11:25AM 28.3075 -81.7400 167° South 481 554 24,100 -1,140 Descending Miami Center
11:26AM 28.1939 -81.7044 165° South 451 519 24,000 -600 Descending Miami Center
11:27AM 28.0614 -81.6728 168° South 441 507 23,000 -1,380 Descending Miami Center
11:28AM 27.9542 -81.6964 191° South 412 474 21,300 -2,040 Descending Miami Center
11:29AM 27.8447 -81.7247 193° South 406 467 19,000 -1,860 Descending Miami Center
11:30AM 27.7422 -81.7319 184° South 389 448 17,600 -1,200 Descending Miami Center
11:31AM 27.6392 -81.6972 163° South 379 436 16,600 -1,080 Descending Miami Center
11:32AM 27.5378 -81.6647 164° South 385 443 15,500 -1,140 Descending Miami Center
11:33AM 27.4389 -81.6278 162° South 380 437 14,400 -1,140 Descending Miami Center
11:34AM 27.3397 -81.5958 164° South 375 432 13,300 -1,140 Descending Miami Center
11:35AM 27.2428 -81.5614 162° South 370 426 12,200 -1,140 Descending Miami Center
11:36AM 27.1500 -81.5297 163° South 365 420 11,100 -1,140 Descending Miami Center
11:37AM 27.0550 -81.4978 163° South 359 413 10,000 -600 Descending Miami Center
11:38AM 26.9786 -81.4669 160° South 339 390 10,000  Level Miami Center
11:39AM 26.8883 -81.4214 156° South 326 375 10,000 -540 Level Miami Center
11:40AM 26.8122 -81.3833 156° South 313 360 9,000 -1,200 Descending Miami Center
11:41AM 26.7347 -81.3897 184° South 285 328 7,700 -1,320 Descending Miami Center
11:42AM 26.6675 -81.4033 190° South 277 319 6,400 -1,440 Descending Miami Center
11:43AM 26.6192 -81.4758 233° Southwest 254 292 4,900 -1,200 Descending Miami Center
11:44AM 26.5756 -81.5392 232° Southwest 259 298 4,000 -900 Descending Miami Center
11:46AM 26.5411 -81.7280 197° South  Level Estimated
11:53AM 26.5333 -81.7500 318° Northwest  Level FlightAware Approximate
11:54AM 26.5362 -81.7552 318° Northwest  Level Estimated
11:55AM 26.5333 -81.7500 318° Northwest  Level FlightAware Approximate
11:56AM 26.5362 -81.7552 318° Northwest  Level Estimated
11:57AM 26.5333 -81.7500 318° Northwest  Level FlightAware Approximate
11:58AM 26.5362 -81.7552 318° Northwest  Level Estimated
11:59AM 26.5333 -81.7500 318° Northwest  Level FlightAware Approximate
12:00PM 26.5362 -81.7552 318° Northwest  Level Estimated
12:01PM 26.5333 -81.7500 318° Northwest  Level FlightAware Approximate
12:02PM 26.5362 -81.7552 318° Northwest  Level Estimated
12:03PM 26.5333 -81.7500 318° Northwest  Level FlightAware Approximate
12:04PM 26.5362 -81.7552 318° Northwest  Level Estimated